createdAt,value
2017-09-20T00:02:08.252Z,12.20
2017-09-20T00:04:35.750Z,12.20
2017-09-20T00:07:04.000Z,12.20
2017-09-20T00:09:31.479Z,12.20
2017-09-20T00:11:59.751Z,12.20
2017-09-20T00:14:27.232Z,12.20
2017-09-20T00:16:54.712Z,12.10
2017-09-20T00:19:22.207Z,12.10
2017-09-20T00:21:49.685Z,12.20
2017-09-20T00:24:17.160Z,12.10
2017-09-20T00:26:45.428Z,12.20
2017-09-20T00:29:13.673Z,12.20
2017-09-20T00:31:41.151Z,12.10
2017-09-20T00:34:08.675Z,12.20
2017-09-20T00:36:36.168Z,12.20
2017-09-20T00:39:03.648Z,12.20
2017-09-20T00:41:31.911Z,12.20
2017-09-20T00:44:00.201Z,12.20
2017-09-20T00:46:28.447Z,12.20
2017-09-20T00:48:57.452Z,12.20
2017-09-20T00:51:24.933Z,12.10
2017-09-20T00:53:53.171Z,12.20
2017-09-20T00:56:20.659Z,12.10
2017-09-20T00:58:48.904Z,12.10
2017-09-20T01:01:16.381Z,12.10
2017-09-20T01:03:43.947Z,12.10
2017-09-20T01:06:12.207Z,12.00
2017-09-20T01:08:39.683Z,12.00
2017-09-20T01:11:07.183Z,12.00
2017-09-20T01:13:34.714Z,12.00
2017-09-20T01:16:02.961Z,11.90
2017-09-20T01:18:30.456Z,11.80
2017-09-20T01:21:09.690Z,11.80
2017-09-20T01:23:38.135Z,11.80
2017-09-20T01:26:06.387Z,11.80
2017-09-20T01:28:33.879Z,11.80
2017-09-20T01:31:02.151Z,11.80
2017-09-20T01:33:29.627Z,11.80
2017-09-20T01:35:57.872Z,11.90
2017-09-20T01:38:25.383Z,11.90
2017-09-20T01:40:52.859Z,11.90
2017-09-20T01:43:20.345Z,12.00
2017-09-20T01:45:47.844Z,12.00
2017-09-20T01:48:15.322Z,12.00
2017-09-20T01:50:42.803Z,12.00
2017-09-20T01:53:10.315Z,12.10
2017-09-20T01:55:38.564Z,12.10
2017-09-20T01:58:06.040Z,12.10
2017-09-20T02:00:34.304Z,12.10
2017-09-20T02:03:01.787Z,12.10
2017-09-20T02:05:30.027Z,12.10
2017-09-20T02:07:58.291Z,12.10
2017-09-20T02:10:25.764Z,12.10
2017-09-20T02:12:53.240Z,12.20
2017-09-20T02:15:21.514Z,12.10
2017-09-20T02:17:49.763Z,12.20
2017-09-20T02:20:17.245Z,12.20
2017-09-20T02:22:45.554Z,12.20
2017-09-20T02:25:13.783Z,12.20
2017-09-20T02:27:41.266Z,12.20
2017-09-20T02:30:09.583Z,12.20
2017-09-20T02:32:37.064Z,12.20
2017-09-20T02:35:04.547Z,12.20
2017-09-20T02:37:32.051Z,12.30
2017-09-20T02:39:59.548Z,12.30
2017-09-20T02:42:27.029Z,12.30
2017-09-20T02:44:55.309Z,12.30
2017-09-20T02:47:23.556Z,12.30
2017-09-20T02:49:51.035Z,12.30
2017-09-20T02:52:19.317Z,12.20
2017-09-20T02:54:47.575Z,12.20
2017-09-20T02:57:15.052Z,12.20
2017-09-20T03:02:45.496Z,12.20
2017-09-20T03:05:13.039Z,12.20
2017-09-20T03:07:41.284Z,12.20
2017-09-20T03:10:08.784Z,12.20
2017-09-20T03:12:37.023Z,12.10
2017-09-20T03:15:04.503Z,12.10
2017-09-20T03:17:32.001Z,12.10
2017-09-20T03:19:59.488Z,12.10
2017-09-20T03:22:26.963Z,12.10
2017-09-20T03:24:54.460Z,12.10
2017-09-20T03:27:21.935Z,12.10
2017-09-20T03:29:49.417Z,12.10
2017-09-20T03:32:16.946Z,12.10
2017-09-20T03:34:45.185Z,12.10
2017-09-20T03:37:12.661Z,12.10
2017-09-20T03:39:40.942Z,12.10
2017-09-20T03:42:09.187Z,12.10
2017-09-20T03:44:37.430Z,12.20
2017-09-20T03:47:04.974Z,12.10
2017-09-20T03:49:32.463Z,12.20
2017-09-20T03:51:59.935Z,12.20
2017-09-20T03:54:27.440Z,12.20
2017-09-20T03:56:54.911Z,12.20
2017-09-20T03:59:22.399Z,12.20
2017-09-20T04:01:50.095Z,12.20
2017-09-20T04:04:18.367Z,12.30
2017-09-20T04:06:46.611Z,12.30
2017-09-20T04:09:14.108Z,12.30
2017-09-20T04:11:42.348Z,12.20
2017-09-20T04:14:09.824Z,12.20
2017-09-20T04:16:37.327Z,12.30
2017-09-20T04:19:04.811Z,12.20
2017-09-20T04:21:32.296Z,12.20
2017-09-20T04:23:59.876Z,12.20
2017-09-20T04:26:28.118Z,12.20
2017-09-20T04:28:55.600Z,12.20
2017-09-20T04:31:23.096Z,12.20
2017-09-20T04:33:50.583Z,12.20
2017-09-20T04:36:18.063Z,12.20
2017-09-20T04:38:45.588Z,12.20
2017-09-20T04:41:13.066Z,12.20
2017-09-20T04:43:40.548Z,12.10
2017-09-20T04:46:08.055Z,12.20
2017-09-20T04:48:35.536Z,12.20
2017-09-20T04:51:03.011Z,12.20
2017-09-20T04:53:30.508Z,12.30
2017-09-20T04:55:58.747Z,12.30
2017-09-20T04:58:26.224Z,12.30
2017-09-20T05:00:54.487Z,12.40
2017-09-20T05:03:21.971Z,12.40
2017-09-20T05:05:50.218Z,12.50
2017-09-20T05:08:17.720Z,12.40
2017-09-20T05:10:45.199Z,12.40
2017-09-20T05:13:12.675Z,12.40
2017-09-20T05:15:40.190Z,12.30
2017-09-20T05:18:07.664Z,12.20
2017-09-20T05:20:35.146Z,12.10
2017-09-20T05:23:02.641Z,12.00
2017-09-20T05:25:30.885Z,11.90
2017-09-20T05:27:58.355Z,11.90
2017-09-20T05:30:25.871Z,11.90
2017-09-20T05:32:53.348Z,11.90
2017-09-20T05:35:20.839Z,11.90
2017-09-20T05:37:48.346Z,11.90
2017-09-20T05:40:15.867Z,11.90
2017-09-20T05:42:44.116Z,11.80
2017-09-20T05:45:11.617Z,11.80
2017-09-20T05:47:39.855Z,11.80
2017-09-20T05:50:07.336Z,11.80
2017-09-20T05:52:35.820Z,11.80
2017-09-20T05:55:04.067Z,11.80
2017-09-20T05:57:31.543Z,11.80
2017-09-20T05:59:59.048Z,11.90
2017-09-20T06:02:26.527Z,11.90
2017-09-20T06:04:54.007Z,12.00
2017-09-20T06:07:21.587Z,12.00
2017-09-20T06:09:49.831Z,12.00
2017-09-20T06:12:17.316Z,12.00
2017-09-20T06:14:44.852Z,12.00
2017-09-20T06:17:12.334Z,12.00
2017-09-20T06:19:39.808Z,12.00
2017-09-20T06:22:08.076Z,12.10
2017-09-20T06:24:36.325Z,12.10
2017-09-20T06:27:03.820Z,12.00
2017-09-20T06:29:32.096Z,12.10
2017-09-20T06:32:00.335Z,12.10
2017-09-20T06:34:27.811Z,12.10
2017-09-20T06:36:55.315Z,12.20
2017-09-20T06:39:22.796Z,12.20
2017-09-20T06:41:50.280Z,12.20
2017-09-20T06:44:17.853Z,12.20
2017-09-20T06:46:46.104Z,12.20
2017-09-20T06:49:13.581Z,12.20
2017-09-20T06:51:41.081Z,12.30
2017-09-20T06:54:08.557Z,12.40
2017-09-20T06:56:36.034Z,12.40
2017-09-20T06:59:03.531Z,12.50
2017-09-20T07:01:31.780Z,12.50
2017-09-20T07:03:59.259Z,12.50
2017-09-20T07:06:27.528Z,12.60
2017-09-20T07:08:55.769Z,12.70
2017-09-20T07:11:23.249Z,12.60
2017-09-20T07:13:50.747Z,12.70
2017-09-20T07:16:18.220Z,12.70
2017-09-20T07:18:45.699Z,12.70
2017-09-20T07:21:13.243Z,12.70
2017-09-20T07:23:40.719Z,12.80
2017-09-20T07:26:08.201Z,12.80
2017-09-20T07:28:35.700Z,12.80
2017-09-20T07:31:03.177Z,12.90
2017-09-20T07:33:30.656Z,12.90
2017-09-20T07:35:58.152Z,13.00
2017-09-20T07:38:30.012Z,13.10
2017-09-20T07:40:58.286Z,13.20
2017-09-20T07:43:26.547Z,13.30
2017-09-20T07:45:54.815Z,13.30
2017-09-20T07:48:22.320Z,13.30
2017-09-20T07:50:49.895Z,13.40
2017-09-20T07:53:17.420Z,13.50
2017-09-20T07:55:45.688Z,13.50
2017-09-20T07:58:13.940Z,13.60
2017-09-20T08:00:41.424Z,13.60
2017-09-20T08:03:09.696Z,13.80
2017-09-20T08:05:37.167Z,13.70
2017-09-20T08:08:05.411Z,14.00
2017-09-20T08:10:32.933Z,14.00
2017-09-20T08:13:00.420Z,14.20
2017-09-20T08:15:27.907Z,14.30
2017-09-20T08:17:55.409Z,14.40
2017-09-20T08:20:22.896Z,14.40
2017-09-20T08:22:50.383Z,14.50
2017-09-20T08:25:18.653Z,14.50
2017-09-20T08:27:46.140Z,14.50
2017-09-20T08:30:14.381Z,14.50
2017-09-20T08:32:41.880Z,14.40
2017-09-20T08:35:09.360Z,14.50
2017-09-20T08:37:36.840Z,14.50
2017-09-20T08:40:04.343Z,14.60
2017-09-20T08:42:32.591Z,14.50
2017-09-20T08:45:00.071Z,14.50
2017-09-20T08:47:28.347Z,14.60
2017-09-20T08:49:56.588Z,14.60
2017-09-20T08:52:24.077Z,14.60
2017-09-20T08:54:52.347Z,14.80
2017-09-20T08:57:20.592Z,15.00
2017-09-20T08:59:48.084Z,14.90
2017-09-20T09:02:16.359Z,15.10
2017-09-20T09:04:44.608Z,15.10
2017-09-20T09:07:12.080Z,15.10
2017-09-20T09:09:39.575Z,15.30
2017-09-20T09:12:07.821Z,15.40
2017-09-20T09:14:36.808Z,15.50
2017-09-20T09:17:04.308Z,15.50
2017-09-20T09:19:31.791Z,15.60
2017-09-20T09:21:59.272Z,15.70
2017-09-20T09:24:26.781Z,15.80
2017-09-20T09:26:55.020Z,15.90
2017-09-20T09:29:24.045Z,16.00
2017-09-20T09:31:52.315Z,16.10
2017-09-20T09:34:20.570Z,16.30
2017-09-20T09:36:49.551Z,16.20
2017-09-20T09:39:17.075Z,16.20
2017-09-20T09:41:44.569Z,16.10
2017-09-20T09:44:12.060Z,16.20
2017-09-20T09:46:40.327Z,16.40
2017-09-20T09:49:08.579Z,16.50
2017-09-20T09:51:36.069Z,16.50
2017-09-20T09:54:04.336Z,16.60
2017-09-20T09:56:31.819Z,16.60
2017-09-20T09:59:00.060Z,16.50
2017-09-20T10:01:27.581Z,16.50
2017-09-20T10:03:55.093Z,16.50
2017-09-20T10:06:23.407Z,16.30
2017-09-20T10:08:50.901Z,16.30
2017-09-20T10:11:18.384Z,16.30
2017-09-20T10:13:46.640Z,16.20
2017-09-20T10:16:14.162Z,16.20
2017-09-20T10:18:41.651Z,16.20
2017-09-20T10:21:09.136Z,16.20
2017-09-20T10:23:36.643Z,15.90
2017-09-20T10:26:04.128Z,15.90
2017-09-20T10:28:31.623Z,16.10
2017-09-20T10:30:59.889Z,16.00
2017-09-20T10:33:28.206Z,16.00
2017-09-20T10:35:55.683Z,16.00
2017-09-20T10:38:23.325Z,16.10
2017-09-20T10:40:50.812Z,16.20
2017-09-20T10:43:18.295Z,16.30
2017-09-20T10:45:46.593Z,16.40
2017-09-20T10:48:14.844Z,16.30
2017-09-20T10:50:43.823Z,16.40
2017-09-20T10:53:11.324Z,16.40
2017-09-20T10:55:39.574Z,16.70
2017-09-20T10:58:07.059Z,16.70
2017-09-20T11:00:35.328Z,17.10
2017-09-20T11:03:03.600Z,17.30
2017-09-20T11:05:31.885Z,17.60
2017-09-20T11:08:00.159Z,17.90
2017-09-20T11:10:28.468Z,17.90
2017-09-20T11:12:55.971Z,17.90
2017-09-20T11:15:23.472Z,18.00
2017-09-20T11:20:05.720Z,17.90
2017-09-20T11:22:33.203Z,17.80
2017-09-20T11:25:00.674Z,17.70
2017-09-20T11:27:28.958Z,17.80
2017-09-20T11:29:56.487Z,17.70
2017-09-20T11:32:23.976Z,18.00
2017-09-20T11:34:52.216Z,17.90
2017-09-20T11:37:19.744Z,17.90
2017-09-20T11:39:47.216Z,18.00
2017-09-20T11:42:14.691Z,18.20
2017-09-20T11:44:42.187Z,18.20
2017-09-20T11:47:10.419Z,18.20
2017-09-20T11:49:37.895Z,18.20
2017-09-20T11:52:05.397Z,18.10
2017-09-20T11:54:32.976Z,18.10
2017-09-20T11:57:00.451Z,17.80
2017-09-20T11:59:27.952Z,17.60
2017-09-20T12:01:56.187Z,17.90
2017-09-20T12:04:23.668Z,18.00
2017-09-20T12:06:51.251Z,17.90
2017-09-20T12:09:19.508Z,18.40
2017-09-20T12:11:47.966Z,18.40
2017-09-20T12:14:15.467Z,18.50
2017-09-20T12:16:43.709Z,18.90
2017-09-20T12:19:11.181Z,18.80
2017-09-20T12:21:38.680Z,18.80
2017-09-20T12:24:06.216Z,18.60
2017-09-20T12:26:34.451Z,18.10
2017-09-20T12:29:01.987Z,18.10
2017-09-20T12:31:29.553Z,18.10
2017-09-20T12:33:57.029Z,18.00
2017-09-20T12:36:24.532Z,18.20
2017-09-20T12:38:52.767Z,18.50
2017-09-20T12:41:20.252Z,18.50
2017-09-20T12:43:47.772Z,18.70
2017-09-20T12:46:15.250Z,19.00
2017-09-20T12:48:42.727Z,19.00
2017-09-20T12:51:11.734Z,19.40
2017-09-20T12:53:39.978Z,19.60
2017-09-20T12:56:07.455Z,19.50
2017-09-20T12:58:34.948Z,19.50
2017-09-20T13:01:02.416Z,19.40
2017-09-20T13:03:29.940Z,19.10
2017-09-20T13:05:58.196Z,19.60
2017-09-20T13:08:25.671Z,19.50
2017-09-20T13:10:53.912Z,20.00
2017-09-20T13:13:21.415Z,20.00
2017-09-20T13:15:49.661Z,20.60
2017-09-20T13:18:17.140Z,20.60
2017-09-20T13:20:45.416Z,21.00
2017-09-20T13:23:13.659Z,21.20
2017-09-20T13:25:41.132Z,21.10
2017-09-20T13:28:10.141Z,21.20
2017-09-20T13:30:37.615Z,21.20
2017-09-20T13:33:05.924Z,21.40
2017-09-20T13:35:33.416Z,21.30
2017-09-20T13:38:00.892Z,21.50
2017-09-20T13:40:28.365Z,21.60
2017-09-20T13:42:56.631Z,21.00
2017-09-20T13:45:24.958Z,20.40
2017-09-20T13:47:52.449Z,20.30
2017-09-20T13:50:19.941Z,19.80
2017-09-20T13:52:48.179Z,19.10
2017-09-20T13:55:15.643Z,19.10
2017-09-20T13:57:43.219Z,19.60
2017-09-20T14:00:11.459Z,19.30
2017-09-20T14:02:38.934Z,19.30
2017-09-20T14:05:06.556Z,19.20
2017-09-20T14:07:34.032Z,19.30
2017-09-20T14:10:01.524Z,19.10
2017-09-20T14:12:29.027Z,18.90
2017-09-20T14:14:56.507Z,18.70
2017-09-20T14:17:23.984Z,18.50
2017-09-20T14:19:51.471Z,18.50
2017-09-20T14:22:19.726Z,18.50
2017-09-20T14:24:47.207Z,18.40
2017-09-20T14:27:15.509Z,18.30
2017-09-20T14:29:42.987Z,18.30
2017-09-20T14:32:10.489Z,18.40
2017-09-20T15:36:53.515Z,18.20
2017-09-20T15:39:21.008Z,18.10
2017-09-20T15:41:48.494Z,17.90
2017-09-20T15:44:16.058Z,17.90
2017-09-20T15:46:43.534Z,17.80
2017-09-20T15:49:11.037Z,17.80
2017-09-20T15:51:39.360Z,17.80
2017-09-20T15:54:06.837Z,17.70
2017-09-20T15:56:34.337Z,17.80
2017-09-20T15:59:02.611Z,17.60
2017-09-20T16:01:30.851Z,17.60
2017-09-20T16:03:58.340Z,17.60
2017-09-20T16:06:26.640Z,17.60
2017-09-20T16:08:54.952Z,17.50
2017-09-20T16:11:22.432Z,17.50
2017-09-20T16:13:49.963Z,17.40
2017-09-20T16:16:17.435Z,17.40
2017-09-20T16:18:44.904Z,17.30
2017-09-20T16:21:12.497Z,17.30
2017-09-20T16:23:40.740Z,17.30
2017-09-20T16:26:08.224Z,17.30
2017-09-20T16:28:36.500Z,17.20
2017-09-20T16:31:03.984Z,17.20
2017-09-20T16:33:31.559Z,17.20
2017-09-20T16:35:59.082Z,17.20
2017-09-20T16:38:27.320Z,17.20
2017-09-20T16:40:54.792Z,17.20
2017-09-20T16:43:22.285Z,17.20
2017-09-20T16:45:50.556Z,17.20
2017-09-20T16:48:18.790Z,17.20
2017-09-20T16:50:46.322Z,17.20
2017-09-20T16:53:13.867Z,17.20
2017-09-20T16:55:41.476Z,17.20
2017-09-20T16:58:08.991Z,17.10
2017-09-20T17:00:36.471Z,17.10
2017-09-20T17:03:03.944Z,17.00
2017-09-20T17:05:31.453Z,17.00
2017-09-20T17:07:59.689Z,16.90
2017-09-20T17:10:27.159Z,16.90
2017-09-20T17:12:55.424Z,16.80
2017-09-20T17:15:22.908Z,16.80
2017-09-20T17:17:51.165Z,16.60
2017-09-20T17:20:19.460Z,16.50
2017-09-20T17:22:47.762Z,16.50
2017-09-20T17:25:15.266Z,16.50
2017-09-20T17:27:42.801Z,16.40
2017-09-20T17:30:10.288Z,16.30
2017-09-20T17:32:37.785Z,16.20
2017-09-20T17:35:06.043Z,16.10
2017-09-20T17:37:33.613Z,16.10
2017-09-20T17:40:01.863Z,16.00
2017-09-20T17:42:30.136Z,16.00
2017-09-20T17:44:57.611Z,16.00
2017-09-20T17:47:25.871Z,15.70
2017-09-20T17:49:53.512Z,15.70
2017-09-20T17:52:20.996Z,15.60
2017-09-20T17:54:48.476Z,15.60
2017-09-20T17:57:16.758Z,15.50
2017-09-20T17:59:44.999Z,15.50
2017-09-20T18:02:12.480Z,15.40
2017-09-20T18:04:39.977Z,15.40
2017-09-20T18:07:07.523Z,15.40
2017-09-20T18:09:35.791Z,15.30
2017-09-20T18:12:04.052Z,15.30
2017-09-20T18:14:33.031Z,15.30
2017-09-20T18:17:00.615Z,15.20
2017-09-20T18:19:28.894Z,15.10
2017-09-20T18:21:57.136Z,15.10
2017-09-20T18:24:24.618Z,15.00
2017-09-20T18:26:52.132Z,15.00
2017-09-20T18:29:19.635Z,14.90
2017-09-20T18:31:47.887Z,14.80
2017-09-20T18:34:15.378Z,14.70
2017-09-20T18:36:43.643Z,14.70
2017-09-20T18:39:11.115Z,14.70
2017-09-20T18:41:39.379Z,14.60
2017-09-20T18:44:06.867Z,14.60
2017-09-20T18:46:34.442Z,14.60
2017-09-20T18:49:01.948Z,14.50
2017-09-20T18:51:29.432Z,14.50
2017-09-20T18:53:57.681Z,14.50
2017-09-20T18:56:25.195Z,14.50
2017-09-20T18:58:53.444Z,14.40
2017-09-20T19:01:21.679Z,14.40
2017-09-20T19:03:49.163Z,14.40
2017-09-20T19:06:17.447Z,14.40
2017-09-20T19:08:45.724Z,14.40
2017-09-20T19:11:14.100Z,14.40
2017-09-20T19:13:42.348Z,14.40
2017-09-20T19:16:09.827Z,14.40
2017-09-20T19:18:37.320Z,14.40
2017-09-20T19:21:04.804Z,14.40
2017-09-20T19:23:32.348Z,14.30
2017-09-20T19:25:59.841Z,14.30
2017-09-20T19:28:27.331Z,14.30
2017-09-20T19:30:55.568Z,14.20
2017-09-20T19:33:23.087Z,14.10
2017-09-20T19:35:50.565Z,14.10
2017-09-20T19:38:18.063Z,14.10
2017-09-20T19:40:45.564Z,14.10
2017-09-20T19:43:13.041Z,14.10
2017-09-20T19:45:40.519Z,14.10
2017-09-20T19:48:08.024Z,14.10
2017-09-20T19:50:36.388Z,14.00
2017-09-20T19:53:04.651Z,14.00
2017-09-20T19:55:32.167Z,14.00
2017-09-20T19:57:59.653Z,14.00
2017-09-20T20:00:27.127Z,14.00
2017-09-20T20:02:54.640Z,14.00
2017-09-20T20:05:22.116Z,13.90
2017-09-20T20:07:49.596Z,13.90
2017-09-20T20:10:17.143Z,13.90
2017-09-20T20:12:44.939Z,13.90
2017-09-20T20:15:13.223Z,13.90
2017-09-20T20:17:41.492Z,13.90
2017-09-20T20:20:09.755Z,13.90
2017-09-20T20:22:37.239Z,13.90
2017-09-20T20:25:05.501Z,14.00
2017-09-20T20:27:32.987Z,13.90
2017-09-20T20:30:00.466Z,14.00
2017-09-20T20:32:27.968Z,14.00
2017-09-20T20:34:55.504Z,14.10
2017-09-20T20:37:23.014Z,14.10
2017-09-20T20:39:51.291Z,14.10
2017-09-20T20:42:19.540Z,14.10
2017-09-20T20:44:47.016Z,14.10
2017-09-20T20:47:15.268Z,14.10
2017-09-20T20:49:42.753Z,14.10
2017-09-20T20:52:11.000Z,14.10
2017-09-20T20:54:38.503Z,14.00
2017-09-20T20:57:05.981Z,14.10
2017-09-20T20:59:33.476Z,14.10
2017-09-20T21:02:00.967Z,14.10
2017-09-20T21:04:29.212Z,14.10
2017-09-20T21:06:56.684Z,14.00
2017-09-20T21:09:24.196Z,14.00
2017-09-20T21:11:51.663Z,14.00
2017-09-20T21:14:19.148Z,13.90
2017-09-20T21:16:46.648Z,13.80
2017-09-20T21:19:14.122Z,13.80
2017-09-20T21:21:41.682Z,13.70
2017-09-20T21:24:09.180Z,13.70
2017-09-20T21:26:36.656Z,13.60
2017-09-20T21:29:04.207Z,13.60
2017-09-20T21:31:31.745Z,13.50
2017-09-20T21:33:59.218Z,13.50
2017-09-20T21:36:28.191Z,13.50
2017-09-20T21:38:55.691Z,13.50
2017-09-20T21:41:23.958Z,13.60
2017-09-20T21:43:52.193Z,13.60
2017-09-20T21:46:19.799Z,13.60
2017-09-20T21:48:48.036Z,13.70
2017-09-20T21:51:15.524Z,13.70
2017-09-20T21:53:43.097Z,13.70
2017-09-20T21:56:10.626Z,13.70
2017-09-20T21:58:38.126Z,13.70
2017-09-20T22:01:06.383Z,13.70
2017-09-20T22:03:33.848Z,13.70
2017-09-20T22:06:02.083Z,13.70
2017-09-20T22:08:29.581Z,13.70
2017-09-20T22:10:57.819Z,13.70
2017-09-20T22:13:25.326Z,13.60
2017-09-20T22:16:05.493Z,13.60
2017-09-20T22:18:45.072Z,13.60
2017-09-20T22:21:24.427Z,13.60
2017-09-20T22:24:03.739Z,13.50
2017-09-20T22:26:43.132Z,13.50
2017-09-20T22:29:11.367Z,13.50
2017-09-20T22:31:38.842Z,13.40
2017-09-20T22:34:06.342Z,13.40
2017-09-20T22:36:33.912Z,13.40
2017-09-20T22:39:01.418Z,13.40
2017-09-20T22:41:28.903Z,13.30
2017-09-20T22:43:57.145Z,13.30
2017-09-20T22:46:24.607Z,13.20
2017-09-20T22:48:52.125Z,13.20
2017-09-20T22:51:19.599Z,13.20
2017-09-20T22:53:47.068Z,13.20
2017-09-20T22:56:14.567Z,13.20
2017-09-20T22:58:42.878Z,13.20
2017-09-20T23:01:10.367Z,13.20
2017-09-20T23:03:37.860Z,13.20
2017-09-20T23:06:06.100Z,13.30
2017-09-20T23:08:33.567Z,13.30
2017-09-20T23:11:01.056Z,13.30
2017-09-20T23:13:29.291Z,13.20
2017-09-20T23:15:56.788Z,13.20
2017-09-20T23:18:25.052Z,13.20
2017-09-20T23:20:52.523Z,13.20
2017-09-20T23:23:20.759Z,13.20
2017-09-20T23:25:48.247Z,13.20
2017-09-20T23:28:16.501Z,13.10
2017-09-20T23:30:43.985Z,13.00
2017-09-20T23:33:12.251Z,13.00
2017-09-20T23:35:39.715Z,12.90
2017-09-20T23:38:07.955Z,12.90
2017-09-20T23:40:35.467Z,12.90
2017-09-20T23:43:03.773Z,12.90
2017-09-20T23:45:31.257Z,12.80
2017-09-20T23:47:58.755Z,12.80
2017-09-20T23:50:26.995Z,12.80
2017-09-20T23:52:54.464Z,12.70
2017-09-20T23:55:21.966Z,12.70
2017-09-20T23:57:49.433Z,12.70
